Latest Weather Observations for Christmas Island

IDW60801

Issued at 10:43 am WST Friday 21 September 2018 (issued every 10 minutes, with the page automatically refreshed every 10 minutes)

About weather observations | Map of weather stations | Latest weather observations for WA | Other Formats
Station Details ID: 200790 Name: CHRISTMAS ISLAND AERO Lat: -10.45 Lon: 105.69 Height: 261.0 m
Data from the previous 72 hours. | See also: Recent months at Christmas Island
Date/Time
WST
Temp
°C
App
Temp
°C
Dew
Point
°C
Rel
Hum
%
Delta-T
°C
Wind Press
QNH
hPa
Press
MSL
hPa
Rain since
9am
mm
Dir  Spd
km/h
Gust
km/h
Spd
kts
Gust
kts
21/10:30am 22.8 23.1 19.6 82 2.1 ESE 17 26 9 14 1016.3 1014.8 0.0
21/10:00am 22.8 22.5 19.6 82 2.1 ESE 20 30 11 16 1016.2 1014.7 0.0
21/09:30am 22.5 21.7 19.3 82 2.1 ESE 22 30 12 16 1016.0 1014.5 0.0
21/09:00am 22.3 22.0 19.5 84 1.8 ESE 20 26 11 14 1015.9 1014.4 0.0
21/08:30am 22.2 22.0 19.4 84 1.8 ESE 19 28 10 15 1015.6 1014.2 0.0
21/08:00am 22.1 21.7 19.3 84 1.8 ESE 20 28 11 15 1015.2 1013.8 0.0
21/07:30am 22.0 21.2 19.2 84 1.8 ESE 22 30 12 16 1014.7 1013.3 0.0
21/07:00am 21.8 21.4 19.0 84 1.8 ESE 19 28 10 15 1014.4 1012.9 0.0
21/06:30am 21.8 21.3 19.0 84 1.8 ESE 20 28 11 15 1014.3 1012.8 0.0
21/06:00am 21.9 21.6 19.1 84 1.8 ESE 19 24 10 13 1014.1 1012.6 0.0
21/05:30am 21.8 21.8 19.0 84 1.8 ESE 17 24 9 13 1014.1 1012.6 0.0
21/05:00am 21.8 21.4 19.0 84 1.8 ESE 19 24 10 13 1013.9 1012.4 0.0
21/04:30am 21.8 21.4 19.0 84 1.8 SE 19 28 10 15 1013.9 1012.4 0.0
21/04:00am 21.8 21.8 19.0 84 1.8 ESE 17 24 9 13 1013.9 1012.4 0.0
21/03:30am 21.8 21.4 18.8 83 1.9 SE 19 24 10 13 1013.8 1012.3 0.0
21/03:00am 21.8 22.2 19.0 84 1.8 SE 15 22 8 12 1013.9 1012.4 0.0
21/02:30am 21.8 22.2 19.0 84 1.8 SE 15 22 8 12 1014.1 1012.6 0.0
21/02:00am 21.8 21.7 18.8 83 1.9 SE 17 22 9 12 1014.2 1012.7 0.0
21/01:30am 21.8 21.6 18.6 82 2.0 SE 17 20 9 11 1014.5 1013.1 0.0
21/01:00am 21.8 21.6 18.6 82 2.0 SE 17 24 9 13 1015.0 1013.6 0.0
21/12:30am 21.8 22.0 18.6 82 2.0 ESE 15 22 8 12 1015.4 1014.0 0.0
21/12:00am 21.9 22.2 18.7 82 2.0 SE 15 20 8 11 1015.6 1014.2 0.0
 
Date/Time
WST
Temp
°C
App
Temp
°C
Dew
Point
°C
Rel
Hum
%
Delta-T
°C
Wind Press
QNH
hPa
Press
MSL
hPa
Rain since
9am
mm
Dir  Spd
km/h
Gust
km/h
Spd
kts
Gust
kts
20/11:30pm 21.9 21.8 18.7 82 2.0 SE 17 24 9 13 1015.6 1014.2 0.0
20/11:00pm 21.9 22.2 18.7 82 2.0 SE 15 22 8 12 1015.5 1014.1 0.0
20/10:30pm 21.9 22.2 18.7 82 2.0 SE 15 22 8 12 1015.4 1014.0 0.0
20/10:00pm 21.9 21.8 18.7 82 2.0 SE 17 24 9 13 1015.5 1014.1 0.0
20/09:38pm 22.0 21.8 18.6 81 2.2 SE 17 24 9 13 1015.4 1014.0 0.0
20/09:35pm 21.9 22.1 18.5 81 2.2 SE 15 24 8 13 1015.4 1014.0 0.0
20/09:30pm 22.0 21.8 18.6 81 2.2 SE 17 20 9 11 1015.3 1013.9 0.0
20/09:02pm 21.9 21.7 18.5 81 2.2 SE 17 22 9 12 1015.0 1013.6 0.0
20/09:00pm 21.9 21.7 18.5 81 2.2 SE 17 22 9 12 1015.0 1013.6 0.0
20/08:59pm 21.9 21.7 18.5 81 2.2 SE 17 22 9 12 1015.0 1013.6 0.0
20/08:30pm 21.9 21.6 18.3 80 2.3 SE 17 26 9 14 1014.8 1013.4 0.0
20/08:00pm 22.0 21.8 18.4 80 2.3 SE 17 24 9 13 1014.5 1013.1 0.0
20/07:30pm 22.0 21.8 18.4 80 2.3 SE 17 24 9 13 1014.0 1012.5 0.0
20/07:00pm 22.1 21.8 18.3 79 2.4 SE 17 24 9 13 1013.5 1012.0 0.0
20/06:30pm 22.1 21.2 17.7 76 2.8 SE 19 28 10 15 1013.0 1011.5 0.0
20/06:17pm 22.2 21.4 18.0 77 2.6 SE 19 26 10 14 1012.9 1011.4 0.0
20/06:03pm 22.5 22.1 18.1 76 2.8 SE 17 26 9 14 1012.9 1011.4 0.0
20/06:00pm 22.4 21.6 18.0 76 2.8 SE 19 28 10 15 1012.9 1011.4 0.0
20/05:30pm 22.3 21.2 17.7 75 2.9 ESE 20 30 11 16 1012.8 1011.3 0.0
20/05:00pm 22.9 22.2 18.2 75 3.0 ESE 19 28 10 15 1012.6 1011.1 0.0
20/04:54pm 23.0 22.3 18.3 75 3.0 SE 19 28 10 15 1012.6 1011.1 0.0
20/04:30pm 23.2 22.5 18.3 74 3.1 SE 19 26 10 14 1012.7 1011.2 0.0
20/04:27pm 23.2 22.5 18.3 74 3.1 SE 19 28 10 15 1012.8 1011.3 0.0
20/04:00pm 22.8 21.9 18.1 75 3.0 ESE 20 28 11 15 1012.9 1011.4 0.0
20/03:47pm 22.8 22.0 18.1 75 3.0 ESE 19 24 10 13 1012.9 1011.4 0.0
20/03:44pm 23.1 22.8 18.2 74 3.1 ESE 17 26 9 14 1012.9 1011.4 0.0
20/03:30pm 23.5 22.9 18.4 73 3.2 ESE 19 24 10 13 1013.0 1011.5 0.0
20/03:00pm 23.8 23.2 18.4 72 3.4 ESE 19 28 10 15 1013.1 1011.6 0.0
20/02:30pm 24.2 23.7 18.6 71 3.6 SE 19 30 10 16 1013.2 1011.7 0.0
20/02:00pm 24.3 24.0 18.2 68 3.9 SE 17 24 9 13 1013.4 1011.9 0.0
20/01:30pm 24.1 23.8 18.3 70 3.7 SE 17 28 9 15 1013.6 1012.1 0.0
20/01:00pm 24.5 23.8 18.7 70 3.7 SE 20 32 11 17 1014.0 1012.5 0.0
20/12:59pm 24.0 22.7 18.2 70 3.7 SE 22 32 12 17 1014.0 1012.5 0.0
20/12:49pm 23.5 22.1 17.9 71 3.5 SE 22 30 12 16 1014.2 1012.7 0.0
20/12:30pm 24.3 23.3 18.9 72 3.5 ESE 22 30 12 16 1014.3 1012.8 0.0
20/12:00pm 23.9 23.1 18.5 72 3.4 SE 20 28 11 15 1014.8 1013.4 0.0
20/11:30am 23.7 23.5 18.6 73 3.3 SE 17 28 9 15 1015.3 1013.9 0.0
20/11:00am 23.2 22.8 18.1 73 3.2 SE 17 26 9 14 1015.7 1014.3 0.0
20/10:30am 22.6 22.6 18.2 76 2.8 SE 15 22 8 12 1015.9 1014.4 0.0
20/10:00am 22.8 22.7 17.9 74 3.1 SE 15 20 8 11 1015.7 1014.3 0.0
20/09:30am 22.0 22.0 18.0 78 2.5 SE 15 20 8 11 1015.6 1014.2 0.0
20/09:00am 21.9 21.8 17.9 78 2.5 SE 15 22 8 12 1015.5 1014.1 0.0
20/08:30am 21.7 21.2 17.9 79 2.4 SE 17 28 9 15 1015.1 1013.7 0.0
20/08:00am 21.4 20.2 17.6 79 2.4 SE 20 28 11 15 1014.7 1013.3 0.0
20/07:30am 21.4 20.8 17.6 79 2.4 SE 17 26 9 14 1014.4 1012.9 0.0
20/07:00am 21.3 21.4 17.5 79 2.4 SE 13 22 7 12 1014.0 1012.5 0.0
20/06:30am 21.3 20.5 17.1 77 2.6 SE 17 24 9 13 1013.8 1012.3 0.0
20/06:00am 21.3 20.6 17.3 78 2.5 SE 17 28 9 15 1013.5 1012.0 0.0
20/05:30am 21.3 20.2 17.3 78 2.5 SE 19 26 10 14 1013.2 1011.7 0.0
20/05:00am 21.3 20.2 17.3 78 2.5 SE 19 24 10 13 1013.1 1011.6 0.0
20/04:30am 21.3 19.9 17.1 77 2.6 SE 20 28 11 15 1013.0 1011.5 0.0
20/04:00am 21.3 20.0 17.3 78 2.5 SE 20 32 11 17 1013.0 1011.5 0.0
20/03:30am 21.3 19.6 17.3 78 2.5 SE 22 32 12 17 1012.9 1011.4 0.0
20/03:00am 21.3 19.6 17.1 77 2.6 SE 22 32 12 17 1013.1 1011.6 0.0
20/02:30am 21.3 19.9 17.1 77 2.6 SE 20 33 11 18 1013.3 1011.8 0.0
20/02:00am 21.3 19.9 17.1 77 2.6 SE 20 33 11 18 1013.5 1012.0 0.0
20/01:30am 21.3 19.9 17.1 77 2.6 SE 20 32 11 17 1013.8 1012.3 0.0
20/01:00am 21.4 20.1 17.2 77 2.6 SE 20 33 11 18 1014.3 1012.8 0.0
20/12:30am 21.3 20.1 17.1 77 2.6 SE 19 26 10 14 1014.6 1013.2 0.0
20/12:00am 21.3 20.0 16.9 76 2.7 SE 19 28 10 15 1014.9 1013.5 0.0
 
Date/Time
WST
Temp
°C
App
Temp
°C
Dew
Point
°C
Rel
Hum
%
Delta-T
°C
Wind Press
QNH
hPa
Press
MSL
hPa
Rain since
9am
mm
Dir  Spd
km/h
Gust
km/h
Spd
kts
Gust
kts
19/11:30pm 21.4 20.0 17.0 76 2.7 SE 20 32 11 17 1015.2 1013.8 0.0
19/11:00pm 21.4 20.0 17.0 76 2.7 SE 20 32 11 17 1015.2 1013.8 0.0
19/10:30pm 21.2 19.9 16.8 76 2.7 SE 19 30 10 16 1015.2 1013.8 0.0
19/10:00pm 21.3 20.0 16.9 76 2.7 SE 19 28 10 15 1015.0 1013.6 0.0
19/09:30pm 21.3 20.0 16.9 76 2.7 SE 19 28 10 15 1015.0 1013.6 0.0
19/09:00pm 21.5 20.1 17.1 76 2.7 SE 20 32 11 17 1015.2 1013.8 0.0
19/08:30pm 21.5 20.3 17.1 76 2.7 SE 19 28 10 15 1015.2 1013.8 0.0
19/08:09pm 21.5 20.2 16.9 75 2.8 SE 19 28 10 15 1015.0 1013.6 0.0
19/08:02pm 21.6 20.4 17.0 75 2.8 SE 19 28 10 15 1014.9 1013.5 0.0
19/08:00pm 21.6 20.4 17.0 75 2.8 SE 19 28 10 15 1015.0 1013.6 0.0
19/07:30pm 21.7 20.9 17.1 75 2.8 SE 17 24 9 13 1014.7 1013.3 0.0
19/07:00pm 21.7 20.3 17.1 75 2.8 SE 20 33 11 18 1014.1 1012.6 0.0
19/06:30pm 21.9 20.4 16.8 73 3.1 SE 20 28 11 15 1013.9 1012.4 0.0
19/06:00pm 22.0 20.6 16.9 73 3.2 SE 20 28 11 15 1013.6 1012.1 0.0
19/05:37pm 22.2 20.4 16.9 72 3.3 SE 22 30 12 16 1013.3 1011.8 0.0
19/05:30pm 22.3 20.9 17.0 72 3.3 SE 20 30 11 16 1013.2 1011.7 0.0
19/05:21pm 22.5 21.1 17.0 71 3.4 SE 20 28 11 15 1013.2 1011.7 0.0
19/05:00pm 22.5 20.7 17.0 71 3.4 SE 22 35 12 19 1013.3 1011.8 0.0
19/04:30pm 23.0 21.4 17.5 71 3.4 SE 22 35 12 19 1013.2 1011.7 0.0
19/04:00pm 23.2 21.1 17.2 69 3.7 SE 24 37 13 20 1013.3 1011.8 0.0
19/03:30pm 23.5 21.1 17.3 68 3.9 SE 26 41 14 22 1013.6 1012.1 0.0
19/03:27pm 23.4 21.2 16.9 67 4.0 SE 24 41 13 22 1013.6 1012.1 0.0
19/03:00pm 23.3 21.3 17.3 69 3.7 SE 24 33 13 18 1013.8 1012.3 0.0
19/02:30pm 23.1 21.1 17.3 70 3.6 SE 24 39 13 21 1014.1 1012.6 0.0
19/02:00pm 23.0 20.3 17.5 71 3.4 SE 28 37 15 20 1014.4 1012.9 0.0
19/01:30pm 23.1 20.3 17.3 70 3.6 SE 28 41 15 22 1014.6 1013.2 0.0
19/01:00pm 24.1 21.2 17.1 65 4.4 ESE 28 39 15 21 1014.8 1013.4 0.0
19/12:30pm 23.1 20.7 17.3 70 3.6 SE 26 39 14 21 1015.0 1013.6 0.0
19/12:00pm 24.5 21.9 17.7 66 4.3 ESE 28 43 15 23 1015.4 1014.0 0.0
19/11:30am 23.2 20.4 17.2 69 3.7 ESE 28 43 15 23 1016.1 1014.6 0.0
19/11:00am 23.1 20.7 17.3 70 3.6 ESE 26 37 14 20 1016.4 1014.9 0.0
19/10:30am 22.9 20.1 17.4 71 3.4 ESE 28 35 15 19 1016.5 1015.0 0.0
19/10:27am 23.0 20.2 17.2 70 3.6 ESE 28 37 15 20 1016.4 1014.9 0.0
19/10:11am 23.4 21.0 17.4 69 3.8 ESE 26 35 14 19 1016.5 1015.0 0.0
19/10:00am 23.2 20.7 17.2 69 3.7 ESE 26 39 14 21 1016.5 1015.0 0.2
19/09:30am 22.9 20.8 17.1 70 3.6 ESE 24 39 13 21 1016.4 1014.9 0.2
19/09:24am 22.7 20.1 16.9 70 3.6 ESE 26 39 14 21 1016.5 1015.0 0.2
19/09:00am 22.5 19.9 16.8 70 3.5 SE 26 37 14 20 1016.4 1014.9 0.2
19/08:42am 22.2 19.5 16.5 70 3.5 ESE 26 39 14 21 1016.5 1015.0 0.2
19/08:30am 22.1 20.2 16.8 72 3.3 SE 22 33 12 18 1016.3 1014.8 0.2
19/08:00am 21.9 19.3 16.8 73 3.1 SE 26 37 14 20 1016.2 1014.7 0.2
19/07:30am 21.6 20.5 17.2 76 2.7 SE 19 33 10 18 1015.7 1014.3 0.2
19/07:23am 21.5 20.1 16.9 75 2.8 SE 20 32 11 17 1015.7 1014.3 0.2
19/07:03am 21.2 19.1 16.2 73 3.0 SE 22 33 12 18 1015.3 1013.9 0.2
19/07:00am 21.2 19.2 16.4 74 2.9 SE 22 33 12 18 1015.3 1013.9 0.2
19/06:30am 21.2 18.9 16.6 75 2.8 SE 24 39 13 21 1015.0 1013.6 0.2
19/06:00am 21.2 19.3 16.8 76 2.7 SE 22 35 12 19 1014.5 1013.1 0.2
19/05:48am 21.2 19.3 16.8 76 2.7 SE 22 35 12 19 1014.4 1012.9 0.2
19/05:41am 21.2 19.3 16.6 75 2.8 SE 22 32 12 17 1014.4 1012.9 0.2
19/05:30am 21.2 18.8 16.4 74 2.9 SE 24 33 13 18 1014.3 1012.8 0.2
19/05:00am 21.2 18.5 16.6 75 2.8 SE 26 41 14 22 1014.2 1012.7 0.2
19/04:30am 21.3 19.2 17.1 77 2.6 SE 24 37 13 20 1014.3 1012.8 0.2
19/04:00am 21.3 19.9 16.9 76 2.7 SE 20 33 11 18 1014.4 1012.9 0.2
19/03:30am 21.3 18.9 16.3 73 3.1 SE 24 33 13 18 1014.5 1013.1 0.2
19/03:11am 21.3 18.6 16.7 75 2.8 SE 26 39 14 21 1014.4 1012.9 0.2
19/03:00am 21.3 18.6 16.5 74 2.9 SE 26 39 14 21 1014.5 1013.1 0.2
19/02:42am 21.1 19.2 16.7 76 2.7 SE 22 35 12 19 1014.6 1013.2 0.2
19/02:30am 21.1 18.8 16.7 76 2.7 SE 24 35 13 19 1014.6 1013.2 0.2
19/02:03am 21.2 18.5 16.6 75 2.8 SE 26 41 14 22 1014.8 1013.4 0.2
19/02:00am 21.2 18.1 16.6 75 2.8 SE 28 41 15 22 1014.8 1013.4 0.2
19/01:54am 21.2 18.1 16.6 75 2.8 SE 28 41 15 22 1014.8 1013.4 0.2
19/01:32am 21.2 18.1 16.6 75 2.8 SE 28 46 15 25 1015.2 1013.8 0.2
19/01:30am 21.3 17.9 16.7 75 2.8 SE 30 46 16 25 1015.2 1013.8 0.2
19/01:24am 21.3 18.2 16.5 74 2.9 SE 28 46 15 25 1015.2 1013.8 0.2
19/01:00am 21.4 19.3 17.2 77 2.6 SE 24 37 13 20 1015.6 1014.2 0.2
19/12:30am 21.4 18.5 17.0 76 2.7 SE 28 41 15 22 1016.0 1014.5 0.2
19/12:16am 21.4 18.5 17.0 76 2.7 SE 28 46 15 25 1016.1 1014.6 0.2
19/12:00am 21.3 19.2 17.1 77 2.6 SE 24 37 13 20 1016.3 1014.8 0.2
 
Date/Time
WST
Temp
°C
App
Temp
°C
Dew
Point
°C
Rel
Hum
%
Delta-T
°C
Wind Press
QNH
hPa
Press
MSL
hPa
Rain since
9am
mm
Dir  Spd
km/h
Gust
km/h
Spd
kts
Gust
kts
18/11:48pm 21.4 19.3 17.2 77 2.6 SE 24 37 13 20 1016.3 1014.8 0.2
18/11:34pm 21.4 18.4 16.8 75 2.8 SE 28 41 15 22 1016.2 1014.7 0.2
18/11:30pm 21.4 18.3 16.6 74 2.9 SE 28 41 15 22 1016.3 1014.8 0.2
18/11:03pm 21.6 18.7 17.0 75 2.8 SE 28 39 15 21 1016.4 1014.9 0.2
18/11:00pm 21.6 18.7 17.0 75 2.8 SE 28 39 15 21 1016.4 1014.9 0.2
18/10:56pm 21.5 18.9 16.9 75 2.8 SE 26 39 14 21 1016.4 1014.9 0.2
18/10:30pm 21.4 18.0 16.8 75 2.8 SE 30 41 16 22 1016.5 1015.0 0.2
18/10:00pm 21.6 18.4 17.2 76 2.7 SE 30 44 16 24 1016.1 1014.6 0.2
18/09:50pm 21.5 18.6 17.1 76 2.7 SE 28 46 15 25 1016.1 1014.6 0.2
18/09:30pm 21.5 18.7 17.3 77 2.6 SE 28 39 15 21 1016.0 1014.5 0.2
18/09:00pm 21.6 19.1 17.2 76 2.7 SE 26 41 14 22 1015.9 1014.4 0.2
18/08:30pm 21.6 18.7 17.0 75 2.8 SE 28 41 15 22 1015.5 1014.1 0.2
18/08:00pm 21.6 18.8 17.2 76 2.7 SE 28 39 15 21 1015.3 1013.9 0.2
18/07:59pm 21.6 18.4 17.2 76 2.7 SE 30 39 16 21 1015.3 1013.9 0.2
18/07:30pm 21.6 19.4 16.8 74 3.0 SE 24 37 13 20 1014.9 1013.5 0.2
18/07:15pm 21.6 19.4 16.8 74 3.0 SE 24 39 13 21 1014.7 1013.3 0.2
18/07:00pm 21.7 19.1 16.9 74 3.0 SE 26 41 14 22 1014.6 1013.2 0.2
18/06:30pm 21.9 19.1 17.3 75 2.9 SE 28 39 15 21 1014.3 1012.8 0.2
18/06:04pm 22.1 19.6 17.2 74 3.0 SE 26 37 14 20 1014.2 1012.7 0.2
18/06:00pm 22.1 19.6 17.0 73 3.2 SE 26 39 14 21 1014.2 1012.7 0.2
18/05:30pm 22.2 19.2 16.7 71 3.4 SE 28 41 15 22 1014.0 1012.5 0.2
18/05:00pm 23.0 20.1 17.0 69 3.7 SE 28 43 15 23 1013.9 1012.4 0.2
18/04:30pm 23.2 20.7 17.2 69 3.7 SE 26 41 14 22 1013.8 1012.3 0.2
18/04:00pm 22.9 19.6 17.1 70 3.6 SE 30 39 16 21 1013.9 1012.4 0.2
18/03:30pm 23.8 21.0 17.3 67 4.1 SE 28 43 15 23 1013.9 1012.4 0.2
18/03:00pm 23.5 20.4 17.5 69 3.8 SE 30 44 16 24 1014.2 1012.7 0.2
18/02:57pm 23.3 20.5 17.3 69 3.7 SE 28 44 15 24 1014.3 1012.8 0.2
18/02:30pm 24.0 21.4 17.7 68 4.0 SE 28 41 15 22 1014.5 1013.1 0.2
18/02:00pm 24.2 21.4 17.4 65 4.3 SE 28 44 15 24 1014.8 1013.4 0.2
18/01:30pm 24.2 21.4 17.4 65 4.3 SE 28 41 15 22 1015.1 1013.7 0.2
18/01:05pm 23.8 20.8 17.8 69 3.8 SE 30 41 16 22 1015.3 1013.9 0.2
18/01:00pm 23.4 20.2 17.2 68 3.9 SE 30 43 16 23 1015.4 1014.0 0.2
18/12:30pm 23.6 20.5 17.6 69 3.8 SE 30 41 16 22 1015.7 1014.3 0.2
18/12:26pm 23.4 20.3 17.4 69 3.8 SE 30 43 16 23 1015.7 1014.3 0.2
18/12:15pm 24.0 20.8 17.3 66 4.2 SE 30 43 16 23 1016.0 1014.5 0.2
18/12:00pm 23.7 20.6 17.4 68 3.9 SE 30 46 16 25 1016.1 1014.6 0.2

Other Formats:

Comma delimited format used in spreadsheet applications
http://www.bom.gov.au/fwo/IDW60801/IDW60801.96995.axf

JavaScript Object Notation format (JSON) in row-major order
http://www.bom.gov.au/fwo/IDW60801/IDW60801.96995.json